sensor_id;sensor_type;location;lat;lon;timestamp;pressure;altitude;pressure_sealevel;temperature;humidity
24230;BME280;12362;50.004;8.006;2024-03-23T00:55:37;99770.06;;;7.76;100.00
24230;BME280;12362;50.004;8.006;2024-03-23T00:58:03;99780.16;;;7.63;100.00
24230;BME280;12362;50.004;8.006;2024-03-23T01:00:29;99770.31;;;7.71;100.00
24230;BME280;12362;50.004;8.006;2024-03-23T01:02:54;99767.84;;;7.68;100.00
24230;BME280;12362;50.004;8.006;2024-03-23T01:05:20;99761.88;;;7.68;100.00
24230;BME280;12362;50.004;8.006;2024-03-23T01:07:45;99763.53;;;7.69;100.00
24230;BME280;12362;50.004;8.006;2024-03-23T01:10:11;99765.97;;;7.72;100.00
24230;BME280;12362;50.004;8.006;2024-03-23T01:12:36;99761.31;;;7.61;100.00
24230;BME280;12362;50.004;8.006;2024-03-23T01:15:02;99763.97;;;7.41;100.00
24230;BME280;12362;50.004;8.006;2024-03-23T01:17:27;99759.19;;;7.34;100.00
24230;BME280;12362;50.004;8.006;2024-03-23T01:19:53;99752.34;;;7.15;100.00
24230;BME280;12362;50.004;8.006;2024-03-23T01:22:18;99758.41;;;7.14;100.00
24230;BME280;12362;50.004;8.006;2024-03-23T01:24:44;99753.84;;;7.18;100.00
24230;BME280;12362;50.004;8.006;2024-03-23T01:27:09;99744.09;;;7.25;100.00
24230;BME280;12362;50.004;8.006;2024-03-23T01:29:35;99740.13;;;7.18;100.00
24230;BME280;12362;50.004;8.006;2024-03-23T01:32:00;99745.69;;;7.09;100.00
24230;BME280;12362;50.004;8.006;2024-03-23T01:34:26;99741.44;;;7.08;100.00
24230;BME280;12362;50.004;8.006;2024-03-23T01:36:53;99737.81;;;7.12;100.00
24230;BME280;12362;50.004;8.006;2024-03-23T01:39:18;99724.19;;;7.09;100.00
24230;BME280;12362;50.004;8.006;2024-03-23T01:41:44;99722.59;;;7.06;100.00
24230;BME280;12362;50.004;8.006;2024-03-23T01:44:10;99710.53;;;7.07;100.00
24230;BME280;12362;50.004;8.006;2024-03-23T01:46:37;99709.34;;;7.14;100.00
24230;BME280;12362;50.004;8.006;2024-03-23T01:49:03;99707.03;;;7.26;100.00
24230;BME280;12362;50.004;8.006;2024-03-23T01:51:30;99705.63;;;7.37;100.00
24230;BME280;12362;50.004;8.006;2024-03-23T01:53:56;99705.34;;;7.43;100.00
24230;BME280;12362;50.004;8.006;2024-03-23T01:56:22;99699.84;;;7.32;100.00
24230;BME280;12362;50.004;8.006;2024-03-23T01:58:47;99691.09;;;7.35;100.00
24230;BME280;12362;50.004;8.006;2024-03-23T02:01:13;99696.81;;;7.41;100.00
24230;BME280;12362;50.004;8.006;2024-03-23T02:03:38;99692.91;;;7.51;100.00
24230;BME280;12362;50.004;8.006;2024-03-23T02:06:04;99686.53;;;7.58;100.00
24230;BME280;12362;50.004;8.006;2024-03-23T02:08:32;99684.84;;;7.57;100.00
24230;BME280;12362;50.004;8.006;2024-03-23T02:10:58;99688.44;;;7.55;100.00
24230;BME280;12362;50.004;8.006;2024-03-23T02:13:24;99683.88;;;7.60;100.00
24230;BME280;12362;50.004;8.006;2024-03-23T02:15:49;99685.19;;;7.68;100.00
24230;BME280;12362;50.004;8.006;2024-03-23T02:18:15;99669.59;;;7.70;100.00
24230;BME280;12362;50.004;8.006;2024-03-23T02:20:40;99661.69;;;7.73;100.00
24230;BME280;12362;50.004;8.006;2024-03-23T02:23:13;99660.66;;;7.77;100.00
24230;BME280;12362;50.004;8.006;2024-03-23T02:25:38;99647.50;;;7.81;100.00
24230;BME280;12362;50.004;8.006;2024-03-23T02:28:04;99661.88;;;7.87;100.00
24230;BME280;12362;50.004;8.006;2024-03-23T02:30:30;99658.03;;;7.94;100.00
24230;BME280;12362;50.004;8.006;2024-03-23T02:32:56;99656.22;;;7.96;100.00
24230;BME280;12362;50.004;8.006;2024-03-23T02:35:21;99663.59;;;8.03;100.00
24230;BME280;12362;50.004;8.006;2024-03-23T02:37:47;99660.41;;;8.15;100.00
24230;BME280;12362;50.004;8.006;2024-03-23T02:40:14;99652.97;;;8.26;100.00
24230;BME280;12362;50.004;8.006;2024-03-23T02:42:40;99634.75;;;8.44;100.00
24230;BME280;12362;50.004;8.006;2024-03-23T02:45:06;99641.81;;;8.58;100.00
24230;BME280;12362;50.004;8.006;2024-03-23T02:47:32;99634.22;;;8.70;100.00
24230;BME280;12362;50.004;8.006;2024-03-23T02:49:58;99631.13;;;8.79;100.00
24230;BME280;12362;50.004;8.006;2024-03-23T02:52:23;99628.88;;;8.89;100.00
24230;BME280;12362;50.004;8.006;2024-03-23T02:54:49;99623.38;;;8.95;100.00
24230;BME280;12362;50.004;8.006;2024-03-23T02:57:14;99605.94;;;8.98;100.00
24230;BME280;12362;50.004;8.006;2024-03-23T02:59:40;99598.06;;;9.00;100.00
24230;BME280;12362;50.004;8.006;2024-03-23T03:02:06;99592.91;;;9.00;100.00
24230;BME280;12362;50.004;8.006;2024-03-23T03:04:32;99584.22;;;9.01;100.00
24230;BME280;12362;50.004;8.006;2024-03-23T03:06:57;99590.31;;;9.00;100.00
24230;BME280;12362;50.004;8.006;2024-03-23T03:09:23;99594.97;;;8.93;100.00
24230;BME280;12362;50.004;8.006;2024-03-23T03:11:48;99602.66;;;8.95;100.00
24230;BME280;12362;50.004;8.006;2024-03-23T03:14:14;99611.28;;;8.95;100.00
24230;BME280;12362;50.004;8.006;2024-03-23T03:16:39;99610.84;;;9.02;100.00
24230;BME280;12362;50.004;8.006;2024-03-23T03:19:04;99614.75;;;9.09;100.00
24230;BME280;12362;50.004;8.006;2024-03-23T03:21:31;99631.16;;;9.10;100.00
24230;BME280;12362;50.004;8.006;2024-03-23T03:23:57;99629.63;;;9.06;100.00
24230;BME280;12362;50.004;8.006;2024-03-23T03:26:23;99626.97;;;9.07;100.00
24230;BME280;12362;50.004;8.006;2024-03-23T03:28:50;99649.28;;;9.10;100.00
24230;BME280;12362;50.004;8.006;2024-03-23T03:31:15;99636.22;;;9.27;100.00
24230;BME280;12362;50.004;8.006;2024-03-23T03:33:42;99651.50;;;9.47;100.00
24230;BME280;12362;50.004;8.006;2024-03-23T03:36:07;99636.03;;;9.45;100.00
24230;BME280;12362;50.004;8.006;2024-03-23T03:38:33;99658.69;;;9.42;100.00
24230;BME280;12362;50.004;8.006;2024-03-23T03:41:01;99664.28;;;9.34;100.00
24230;BME280;12362;50.004;8.006;2024-03-23T03:43:26;99648.94;;;9.16;100.00
24230;BME280;12362;50.004;8.006;2024-03-23T03:45:53;99667.22;;;8.98;100.00
24230;BME280;12362;50.004;8.006;2024-03-23T03:48:19;99680.00;;;9.01;100.00
24230;BME280;12362;50.004;8.006;2024-03-23T03:50:45;99689.84;;;8.94;100.00
24230;BME280;12362;50.004;8.006;2024-03-23T03:53:10;99686.25;;;8.81;100.00
24230;BME280;12362;50.004;8.006;2024-03-23T03:55:36;99688.97;;;8.78;100.00
24230;BME280;12362;50.004;8.006;2024-03-23T03:58:02;99690.91;;;8.75;100.00
24230;BME280;12362;50.004;8.006;2024-03-23T04:00:28;99667.09;;;8.68;100.00
24230;BME280;12362;50.004;8.006;2024-03-23T04:02:53;99670.16;;;8.59;100.00
24230;BME280;12362;50.004;8.006;2024-03-23T04:05:18;99660.34;;;8.66;100.00
24230;BME280;12362;50.004;8.006;2024-03-23T04:07:45;99676.03;;;8.63;100.00
24230;BME280;12362;50.004;8.006;2024-03-23T04:10:11;99665.00;;;8.59;100.00
24230;BME280;12362;50.004;8.006;2024-03-23T04:12:37;99660.66;;;8.60;100.00
24230;BME280;12362;50.004;8.006;2024-03-23T04:15:03;99662.81;;;8.52;100.00
24230;BME280;12362;50.004;8.006;2024-03-23T04:17:30;99668.38;;;8.44;100.00
24230;BME280;12362;50.004;8.006;2024-03-23T04:19:58;99661.47;;;8.45;100.00
24230;BME280;12362;50.004;8.006;2024-03-23T04:22:23;99670.13;;;8.44;100.00
24230;BME280;12362;50.004;8.006;2024-03-23T04:24:58;99679.72;;;8.42;100.00
24230;BME280;12362;50.004;8.006;2024-03-23T04:27:23;99690.84;;;8.44;100.00
24230;BME280;12362;50.004;8.006;2024-03-23T04:29:50;99698.75;;;8.41;100.00
24230;BME280;12362;50.004;8.006;2024-03-23T04:32:16;99712.69;;;8.38;100.00
24230;BME280;12362;50.004;8.006;2024-03-23T04:34:42;99718.66;;;8.39;100.00
24230;BME280;12362;50.004;8.006;2024-03-23T04:37:09;99704.84;;;8.23;100.00
24230;BME280;12362;50.004;8.006;2024-03-23T04:39:36;99704.16;;;8.19;100.00
24230;BME280;12362;50.004;8.006;2024-03-23T04:42:03;99704.09;;;8.21;100.00
24230;BME280;12362;50.004;8.006;2024-03-23T04:44:29;99707.75;;;8.17;100.00
24230;BME280;12362;50.004;8.006;2024-03-23T04:46:59;99728.72;;;8.11;100.00
24230;BME280;12362;50.004;8.006;2024-03-23T04:49:25;99741.78;;;8.08;100.00
24230;BME280;12362;50.004;8.006;2024-03-23T04:51:51;99743.06;;;8.00;100.00
24230;BME280;12362;50.004;8.006;2024-03-23T04:54:16;99750.59;;;8.04;100.00
24230;BME280;12362;50.004;8.006;2024-03-23T04:56:42;99755.16;;;7.99;100.00
24230;BME280;12362;50.004;8.006;2024-03-23T04:59:07;99742.06;;;8.02;100.00
24230;BME280;12362;50.004;8.006;2024-03-23T05:01:33;99750.19;;;7.95;100.00
24230;BME280;12362;50.004;8.006;2024-03-23T05:04:02;99746.78;;;7.94;100.00
24230;BME280;12362;50.004;8.006;2024-03-23T05:06:27;99775.75;;;8.01;100.00
24230;BME280;12362;50.004;8.006;2024-03-23T05:08:54;99778.34;;;8.01;100.00
24230;BME280;12362;50.004;8.006;2024-03-23T05:11:19;99784.09;;;7.89;100.00
24230;BME280;12362;50.004;8.006;2024-03-23T05:13:46;99786.75;;;7.87;100.00
24230;BME280;12362;50.004;8.006;2024-03-23T05:16:11;99778.59;;;7.78;100.00
24230;BME280;12362;50.004;8.006;2024-03-23T05:18:37;99773.69;;;7.72;100.00
24230;BME280;12362;50.004;8.006;2024-03-23T05:21:02;99761.88;;;7.68;100.00
24230;BME280;12362;50.004;8.006;2024-03-23T05:23:31;99762.22;;;7.60;100.00
24230;BME280;12362;50.004;8.006;2024-03-23T05:25:56;99775.84;;;7.45;100.00
24230;BME280;12362;50.004;8.006;2024-03-23T05:28:22;99779.63;;;7.38;100.00
24230;BME280;12362;50.004;8.006;2024-03-23T05:30:52;99793.44;;;7.37;100.00
24230;BME280;12362;50.004;8.006;2024-03-23T05:33:19;99807.59;;;7.29;100.00
24230;BME280;12362;50.004;8.006;2024-03-23T05:35:45;99797.69;;;7.20;100.00
24230;BME280;12362;50.004;8.006;2024-03-23T05:38:10;99805.25;;;7.23;100.00
24230;BME280;12362;50.004;8.006;2024-03-23T05:40:36;99811.50;;;7.19;100.00
24230;BME280;12362;50.004;8.006;2024-03-23T05:43:03;99819.69;;;7.09;100.00
24230;BME280;12362;50.004;8.006;2024-03-23T05:45:29;99820.59;;;7.08;100.00
24230;BME280;12362;50.004;8.006;2024-03-23T05:47:55;99808.22;;;6.96;100.00
24230;BME280;12362;50.004;8.006;2024-03-23T05:50:22;99811.66;;;6.96;100.00
24230;BME280;12362;50.004;8.006;2024-03-23T05:52:49;99809.09;;;6.96;100.00
24230;BME280;12362;50.004;8.006;2024-03-23T05:55:14;99810.31;;;6.88;100.00
24230;BME280;12362;50.004;8.006;2024-03-23T05:57:40;99839.16;;;6.77;100.00
24230;BME280;12362;50.004;8.006;2024-03-23T06:00:06;99835.88;;;6.74;100.00
24230;BME280;12362;50.004;8.006;2024-03-23T06:02:37;99850.50;;;6.73;100.00
24230;BME280;12362;50.004;8.006;2024-03-23T06:05:03;99865.41;;;6.67;100.00
24230;BME280;12362;50.004;8.006;2024-03-23T06:07:28;99886.16;;;6.64;100.00
24230;BME280;12362;50.004;8.006;2024-03-23T06:09:53;99914.53;;;6.64;100.00
24230;BME280;12362;50.004;8.006;2024-03-23T06:12:19;99930.72;;;6.67;100.00
24230;BME280;12362;50.004;8.006;2024-03-23T06:14:46;99929.88;;;6.67;100.00
24230;BME280;12362;50.004;8.006;2024-03-23T06:17:13;99941.09;;;6.66;100.00
24230;BME280;12362;50.004;8.006;2024-03-23T06:19:39;99950.63;;;6.64;100.00
24230;BME280;12362;50.004;8.006;2024-03-23T06:22:04;99954.38;;;6.57;100.00
24230;BME280;12362;50.004;8.006;2024-03-23T06:24:38;99956.41;;;6.70;100.00
24230;BME280;12362;50.004;8.006;2024-03-23T06:27:03;99961.47;;;6.72;100.00
24230;BME280;12362;50.004;8.006;2024-03-23T06:29:29;99969.72;;;6.60;100.00
24230;BME280;12362;50.004;8.006;2024-03-23T06:31:55;99966.34;;;6.58;100.00
24230;BME280;12362;50.004;8.006;2024-03-23T06:34:21;99975.00;;;6.57;100.00
24230;BME280;12362;50.004;8.006;2024-03-23T06:36:48;99964.03;;;6.73;100.00
24230;BME280;12362;50.004;8.006;2024-03-23T06:39:15;99966.22;;;6.82;100.00
24230;BME280;12362;50.004;8.006;2024-03-23T06:41:42;99977.75;;;6.94;100.00
24230;BME280;12362;50.004;8.006;2024-03-23T06:44:07;99994.00;;;6.97;100.00
24230;BME280;12362;50.004;8.006;2024-03-23T06:46:33;99992.34;;;6.95;100.00
24230;BME280;12362;50.004;8.006;2024-03-23T06:48:59;99998.19;;;7.00;100.00
24230;BME280;12362;50.004;8.006;2024-03-23T06:51:24;99979.25;;;6.99;100.00
24230;BME280;12362;50.004;8.006;2024-03-23T06:53:50;99982.03;;;6.95;100.00
24230;BME280;12362;50.004;8.006;2024-03-23T06:56:15;100011.50;;;6.89;100.00
24230;BME280;12362;50.004;8.006;2024-03-23T06:58:40;100022.88;;;6.85;100.00
24230;BME280;12362;50.004;8.006;2024-03-23T07:01:06;100026.09;;;6.90;100.00
24230;BME280;12362;50.004;8.006;2024-03-23T07:03:32;100025.16;;;6.93;100.00
24230;BME280;12362;50.004;8.006;2024-03-23T07:05:58;100039.69;;;6.94;100.00
24230;BME280;12362;50.004;8.006;2024-03-23T07:08:24;100042.84;;;7.02;100.00
24230;BME280;12362;50.004;8.006;2024-03-23T07:10:49;100047.22;;;7.00;100.00
24230;BME280;12362;50.004;8.006;2024-03-23T07:13:15;100040.63;;;6.93;100.00
24230;BME280;12362;50.004;8.006;2024-03-23T07:15:40;100052.31;;;7.01;100.00
24230;BME280;12362;50.004;8.006;2024-03-23T07:18:06;100055.84;;;6.99;100.00
24230;BME280;12362;50.004;8.006;2024-03-23T07:20:31;100053.19;;;7.00;100.00
24230;BME280;12362;50.004;8.006;2024-03-23T07:22:57;100061.63;;;7.05;100.00
24230;BME280;12362;50.004;8.006;2024-03-23T07:25:22;100060.59;;;7.09;100.00
24230;BME280;12362;50.004;8.006;2024-03-23T07:27:48;100062.84;;;7.17;100.00
24230;BME280;12362;50.004;8.006;2024-03-23T07:30:14;100067.22;;;7.36;100.00
24230;BME280;12362;50.004;8.006;2024-03-23T07:32:40;100069.75;;;7.77;100.00
24230;BME280;12362;50.004;8.006;2024-03-23T07:35:06;100080.97;;;7.76;100.00
24230;BME280;12362;50.004;8.006;2024-03-23T07:37:31;100084.50;;;7.75;100.00
24230;BME280;12362;50.004;8.006;2024-03-23T07:39:57;100091.56;;;7.90;100.00
24230;BME280;12362;50.004;8.006;2024-03-23T07:42:23;100079.03;;;8.21;100.00
24230;BME280;12362;50.004;8.006;2024-03-23T07:44:48;100087.00;;;8.16;100.00
24230;BME280;12362;50.004;8.006;2024-03-23T07:47:14;100092.88;;;8.20;100.00
24230;BME280;12362;50.004;8.006;2024-03-23T07:49:40;100085.28;;;8.91;100.00
24230;BME280;12362;50.004;8.006;2024-03-23T07:52:05;100081.19;;;9.03;100.00
24230;BME280;12362;50.004;8.006;2024-03-23T07:54:31;100072.69;;;9.35;100.00
24230;BME280;12362;50.004;8.006;2024-03-23T07:56:57;100080.78;;;9.97;100.00
24230;BME280;12362;50.004;8.006;2024-03-23T07:59:22;100091.09;;;9.82;100.00
24230;BME280;12362;50.004;8.006;2024-03-23T08:01:48;100077.41;;;9.95;100.00
24230;BME280;12362;50.004;8.006;2024-03-23T08:04:13;100088.09;;;10.06;100.00
24230;BME280;12362;50.004;8.006;2024-03-23T08:06:39;100097.47;;;9.75;100.00
24230;BME280;12362;50.004;8.006;2024-03-23T08:09:04;100098.00;;;9.81;100.00
24230;BME280;12362;50.004;8.006;2024-03-23T08:11:31;100081.59;;;9.97;100.00
24230;BME280;12362;50.004;8.006;2024-03-23T08:13:56;100088.25;;;9.69;100.00
24230;BME280;12362;50.004;8.006;2024-03-23T08:16:23;100082.69;;;9.43;100.00
24230;BME280;12362;50.004;8.006;2024-03-23T08:18:51;100083.53;;;10.11;100.00
24230;BME280;12362;50.004;8.006;2024-03-23T08:21:17;100084.59;;;9.73;100.00
24230;BME280;12362;50.004;8.006;2024-03-23T08:23:42;100080.63;;;9.66;100.00
24230;BME280;12362;50.004;8.006;2024-03-23T08:26:09;100083.25;;;9.14;100.00
24230;BME280;12362;50.004;8.006;2024-03-23T08:28:35;100083.09;;;9.52;100.00
24230;BME280;12362;50.004;8.006;2024-03-23T08:31:03;100076.88;;;9.89;100.00
24230;BME280;12362;50.004;8.006;2024-03-23T08:33:31;100066.84;;;9.99;100.00
24230;BME280;12362;50.004;8.006;2024-03-23T08:35:59;100064.47;;;10.60;100.00
24230;BME280;12362;50.004;8.006;2024-03-23T08:38:26;100063.56;;;10.28;100.00
24230;BME280;12362;50.004;8.006;2024-03-23T08:40:59;100063.03;;;10.85;100.00
24230;BME280;12362;50.004;8.006;2024-03-23T08:43:25;100073.16;;;10.59;100.00
24230;BME280;12362;50.004;8.006;2024-03-23T08:45:51;100057.81;;;11.75;100.00
24230;BME280;12362;50.004;8.006;2024-03-23T08:48:18;100070.56;;;10.74;100.00
24230;BME280;12362;50.004;8.006;2024-03-23T08:50:46;100066.16;;;11.21;100.00
24230;BME280;12362;50.004;8.006;2024-03-23T08:53:14;100063.38;;;10.94;100.00
24230;BME280;12362;50.004;8.006;2024-03-23T08:55:40;100063.25;;;11.56;100.00
24230;BME280;12362;50.004;8.006;2024-03-23T08:58:06;100059.34;;;10.89;100.00
24230;BME280;12362;50.004;8.006;2024-03-23T09:00:34;100070.63;;;10.73;100.00
24230;BME280;12362;50.004;8.006;2024-03-23T09:02:59;100064.69;;;11.01;100.00
24230;BME280;12362;50.004;8.006;2024-03-23T09:05:26;100050.16;;;11.28;100.00
24230;BME280;12362;50.004;8.006;2024-03-23T09:07:53;100055.28;;;11.44;100.00
24230;BME280;12362;50.004;8.006;2024-03-23T09:10:18;100053.28;;;11.78;93.47
24230;BME280;12362;50.004;8.006;2024-03-23T09:12:43;100038.44;;;12.08;93.71
24230;BME280;12362;50.004;8.006;2024-03-23T09:15:09;100053.81;;;11.69;79.56
24230;BME280;12362;50.004;8.006;2024-03-23T09:17:34;100051.47;;;12.22;85.54
24230;BME280;12362;50.004;8.006;2024-03-23T09:20:00;100055.81;;;12.49;81.85
24230;BME280;12362;50.004;8.006;2024-03-23T09:22:25;100059.38;;;12.74;77.92
24230;BME280;12362;50.004;8.006;2024-03-23T09:24:57;100060.34;;;11.76;84.11
24230;BME280;12362;50.004;8.006;2024-03-23T09:27:22;100068.00;;;13.03;83.34
24230;BME280;12362;50.004;8.006;2024-03-23T09:29:48;100060.44;;;11.88;79.28
24230;BME280;12362;50.004;8.006;2024-03-23T09:32:13;100063.16;;;12.29;82.53
24230;BME280;12362;50.004;8.006;2024-03-23T09:34:38;100056.38;;;12.54;77.83
24230;BME280;12362;50.004;8.006;2024-03-23T09:37:04;100059.25;;;12.36;79.48
24230;BME280;12362;50.004;8.006;2024-03-23T09:39:29;100074.03;;;12.07;79.36
24230;BME280;12362;50.004;8.006;2024-03-23T09:41:58;100072.81;;;12.55;76.78
24230;BME280;12362;50.004;8.006;2024-03-23T09:44:24;100074.16;;;11.77;82.08
24230;BME280;12362;50.004;8.006;2024-03-23T09:46:51;100075.72;;;11.50;81.42
24230;BME280;12362;50.004;8.006;2024-03-23T09:49:17;100071.44;;;12.35;75.91
24230;BME280;12362;50.004;8.006;2024-03-23T09:51:42;100074.09;;;12.62;76.84
24230;BME280;12362;50.004;8.006;2024-03-23T09:54:08;100081.59;;;11.69;80.02
24230;BME280;12362;50.004;8.006;2024-03-23T09:56:33;100078.53;;;11.47;86.20
24230;BME280;12362;50.004;8.006;2024-03-23T09:59:02;100085.63;;;11.29;84.63
24230;BME280;12362;50.004;8.006;2024-03-23T10:01:31;100088.72;;;11.05;89.21
24230;BME280;12362;50.004;8.006;2024-03-23T10:03:57;100140.28;;;10.49;99.70
24230;BME280;12362;50.004;8.006;2024-03-23T10:06:23;100196.09;;;8.83;100.00
24230;BME280;12362;50.004;8.006;2024-03-23T10:08:52;100212.78;;;7.76;100.00
24230;BME280;12362;50.004;8.006;2024-03-23T10:11:19;100212.72;;;7.35;100.00
24230;BME280;12362;50.004;8.006;2024-03-23T10:13:45;100212.97;;;7.29;100.00
24230;BME280;12362;50.004;8.006;2024-03-23T10:16:12;100208.53;;;7.32;100.00
24230;BME280;12362;50.004;8.006;2024-03-23T10:18:38;100204.38;;;7.28;100.00
24230;BME280;12362;50.004;8.006;2024-03-23T10:21:11;100205.13;;;7.32;100.00
24230;BME280;12362;50.004;8.006;2024-03-23T10:23:43;100199.63;;;7.18;100.00
24230;BME280;12362;50.004;8.006;2024-03-23T10:26:30;100201.66;;;7.10;100.00
24230;BME280;12362;50.004;8.006;2024-03-23T10:29:00;100185.47;;;7.28;100.00
24230;BME280;12362;50.004;8.006;2024-03-23T10:31:33;100195.56;;;7.34;100.00
24230;BME280;12362;50.004;8.006;2024-03-23T10:34:05;100196.28;;;7.37;100.00
24230;BME280;12362;50.004;8.006;2024-03-23T10:36:31;100195.06;;;7.67;100.00
24230;BME280;12362;50.004;8.006;2024-03-23T10:38:57;100189.56;;;7.96;100.00
24230;BME280;12362;50.004;8.006;2024-03-23T10:41:28;100180.84;;;7.77;100.00
24230;BME280;12362;50.004;8.006;2024-03-23T10:43:55;100189.34;;;7.81;100.00
24230;BME280;12362;50.004;8.006;2024-03-23T10:46:23;100173.50;;;7.88;100.00
24230;BME280;12362;50.004;8.006;2024-03-23T10:48:48;100181.34;;;7.87;100.00
24230;BME280;12362;50.004;8.006;2024-03-23T10:54:06;100163.94;;;7.70;100.00
24230;BME280;12362;50.004;8.006;2024-03-23T10:56:35;100166.09;;;7.81;100.00
24230;BME280;12362;50.004;8.006;2024-03-23T10:59:02;100161.75;;;7.81;100.00
24230;BME280;12362;50.004;8.006;2024-03-23T11:01:29;100144.06;;;7.92;100.00
24230;BME280;12362;50.004;8.006;2024-03-23T11:03:55;100137.00;;;8.35;100.00
24230;BME280;12362;50.004;8.006;2024-03-23T11:06:40;100126.41;;;8.60;100.00
24230;BME280;12362;50.004;8.006;2024-03-23T11:14:57;100096.59;;;11.19;100.00
24230;BME280;12362;50.004;8.006;2024-03-23T11:17:25;100090.44;;;11.35;100.00
24230;BME280;12362;50.004;8.006;2024-03-23T11:19:56;100083.72;;;11.62;100.00
24230;BME280;12362;50.004;8.006;2024-03-23T11:25:25;100055.03;;;12.89;100.00
24230;BME280;12362;50.004;8.006;2024-03-23T11:27:52;100051.72;;;12.99;98.16
24230;BME280;12362;50.004;8.006;2024-03-23T11:30:23;100045.41;;;13.55;92.40
24230;BME280;12362;50.004;8.006;2024-03-23T11:32:51;100048.72;;;13.32;92.62
24230;BME280;12362;50.004;8.006;2024-03-23T11:38:04;100028.03;;;13.92;87.27
24230;BME280;12362;50.004;8.006;2024-03-23T11:40:31;100027.34;;;13.52;84.32
24230;BME280;12362;50.004;8.006;2024-03-23T11:43:04;100012.34;;;14.42;77.72
24230;BME280;12362;50.004;8.006;2024-03-23T11:45:35;100028.31;;;13.75;78.00
24230;BME280;12362;50.004;8.006;2024-03-23T11:48:14;100014.25;;;14.03;80.32
24230;BME280;12362;50.004;8.006;2024-03-23T11:50:45;100017.38;;;13.83;73.26
24230;BME280;12362;50.004;8.006;2024-03-23T11:53:20;100009.31;;;13.61;77.21
24230;BME280;12362;50.004;8.006;2024-03-23T11:56:04;100016.00;;;13.53;73.95
24230;BME280;12362;50.004;8.006;2024-03-23T11:58:30;100019.78;;;12.69;70.86
24230;BME280;12362;50.004;8.006;2024-03-23T12:00:57;100020.94;;;12.38;68.37
24230;BME280;12362;50.004;8.006;2024-03-23T12:03:24;100015.59;;;12.13;69.80
24230;BME280;12362;50.004;8.006;2024-03-23T12:05:55;100015.31;;;12.17;73.22
24230;BME280;12362;50.004;8.006;2024-03-23T12:08:22;99997.56;;;13.17;75.84
24230;BME280;12362;50.004;8.006;2024-03-23T12:10:52;99990.53;;;13.81;64.67
24230;BME280;12362;50.004;8.006;2024-03-23T12:13:19;99992.00;;;13.48;64.28
24230;BME280;12362;50.004;8.006;2024-03-23T12:15:49;99993.44;;;13.00;66.48
24230;BME280;12362;50.004;8.006;2024-03-23T12:18:15;99995.56;;;12.41;68.23
24230;BME280;12362;50.004;8.006;2024-03-23T12:20:41;99985.19;;;11.99;70.93
24230;BME280;12362;50.004;8.006;2024-03-23T12:23:13;99981.63;;;12.28;75.91
24230;BME280;12362;50.004;8.006;2024-03-23T12:25:41;99999.75;;;12.16;75.32
24230;BME280;12362;50.004;8.006;2024-03-23T12:28:07;100072.78;;;10.34;100.00
24230;BME280;12362;50.004;8.006;2024-03-23T12:30:39;100122.69;;;8.47;100.00
24230;BME280;12362;50.004;8.006;2024-03-23T12:33:07;100137.31;;;7.27;100.00
24230;BME280;12362;50.004;8.006;2024-03-23T12:35:37;100170.84;;;7.06;100.00
24230;BME280;12362;50.004;8.006;2024-03-23T12:38:03;100169.75;;;6.90;100.00
24230;BME280;12362;50.004;8.006;2024-03-23T12:40:29;100177.97;;;6.78;100.00
24230;BME280;12362;50.004;8.006;2024-03-23T12:42:55;100167.84;;;6.72;100.00
24230;BME280;12362;50.004;8.006;2024-03-23T12:45:22;100130.41;;;7.27;100.00
24230;BME280;12362;50.004;8.006;2024-03-23T12:47:47;100117.09;;;8.17;100.00
24230;BME280;12362;50.004;8.006;2024-03-23T12:50:13;100108.34;;;9.13;100.00
24230;BME280;12362;50.004;8.006;2024-03-23T12:52:39;100100.13;;;8.87;100.00
24230;BME280;12362;50.004;8.006;2024-03-23T12:55:05;100116.00;;;8.61;100.00
24230;BME280;12362;50.004;8.006;2024-03-23T12:57:31;100115.84;;;8.83;100.00
24230;BME280;12362;50.004;8.006;2024-03-23T12:59:57;100105.69;;;8.60;100.00
24230;BME280;12362;50.004;8.006;2024-03-23T13:02:23;100099.22;;;8.88;100.00
24230;BME280;12362;50.004;8.006;2024-03-23T13:04:53;100099.84;;;9.62;100.00
24230;BME280;12362;50.004;8.006;2024-03-23T13:07:19;100098.16;;;9.78;100.00
24230;BME280;12362;50.004;8.006;2024-03-23T13:09:45;100097.13;;;9.99;100.00
24230;BME280;12362;50.004;8.006;2024-03-23T13:12:11;100083.81;;;10.85;100.00
24230;BME280;12362;50.004;8.006;2024-03-23T13:14:38;100089.25;;;10.65;100.00
24230;BME280;12362;50.004;8.006;2024-03-23T13:17:04;100098.78;;;9.49;100.00
24230;BME280;12362;50.004;8.006;2024-03-23T13:19:29;100101.06;;;9.38;100.00
24230;BME280;12362;50.004;8.006;2024-03-23T13:22:00;100085.19;;;9.44;100.00
24230;BME280;12362;50.004;8.006;2024-03-23T13:24:27;100075.28;;;10.03;100.00
24230;BME280;12362;50.004;8.006;2024-03-23T13:26:55;100074.78;;;9.46;100.00
24230;BME280;12362;50.004;8.006;2024-03-23T13:29:21;100063.63;;;9.27;100.00
24230;BME280;12362;50.004;8.006;2024-03-23T13:31:48;100065.16;;;9.48;100.00
24230;BME280;12362;50.004;8.006;2024-03-23T13:34:15;100071.88;;;9.52;100.00
24230;BME280;12362;50.004;8.006;2024-03-23T13:36:41;100057.84;;;10.06;100.00
24230;BME280;12362;50.004;8.006;2024-03-23T13:39:07;100053.66;;;10.19;100.00
24230;BME280;12362;50.004;8.006;2024-03-23T13:41:39;100044.50;;;10.91;100.00
24230;BME280;12362;50.004;8.006;2024-03-23T13:44:09;100032.44;;;11.35;100.00
24230;BME280;12362;50.004;8.006;2024-03-23T13:46:39;100020.50;;;12.17;100.00
24230;BME280;12362;50.004;8.006;2024-03-23T13:49:06;100021.91;;;12.09;100.00
24230;BME280;12362;50.004;8.006;2024-03-23T13:51:32;100024.38;;;11.39;100.00
24230;BME280;12362;50.004;8.006;2024-03-23T13:53:57;100016.34;;;11.28;100.00
24230;BME280;12362;50.004;8.006;2024-03-23T13:56:27;100009.31;;;11.30;100.00
24230;BME280;12362;50.004;8.006;2024-03-23T13:58:55;100025.31;;;10.93;100.00
24230;BME280;12362;50.004;8.006;2024-03-23T14:01:21;100013.75;;;11.28;96.29